Time;durP1;ratioP1;P1;durP2;ratioP2;P2;SDS_P1;SDS_P2;PMS_P1;PMS_P2;Temp;Humidity;BMP_temperature;BMP_pressure;BME280_temperature;BME280_humidity;BME280_pressure;Samples;Min_cycle;Max_cycle;Signal;HPM_P1;HPM_P2
2022/08/30 00:01:13;;;;;;;12.30;8.70;;;15.60;99.90;;;;;;6219356;23;20596;-82
2022/08/30 00:03:45;;;;;;;13.90;8.57;;;15.70;99.90;;;;;;6218708;23;20742;-83
2022/08/30 00:06:14;;;;;;;9.93;8.50;;;15.70;99.90;;;;;;6219017;23;20400;-81
2022/08/30 00:08:47;;;;;;;11.65;8.55;;;15.70;99.90;;;;;;6219168;23;20169;-81
2022/08/30 00:11:18;;;;;;;11.52;9.13;;;15.80;99.90;;;;;;6193587;23;20200;-80
2022/08/30 00:13:49;;;;;;;8.43;6.65;;;15.80;99.90;;;;;;6219216;23;20445;-80
2022/08/30 00:16:18;;;;;;;8.53;7.43;;;15.70;99.90;;;;;;6193788;23;20527;-83
2022/08/30 00:18:46;;;;;;;14.93;7.60;;;15.70;99.90;;;;;;6220219;23;20385;-84
2022/08/30 00:21:14;;;;;;;8.20;7.25;;;15.60;99.90;;;;;;6219446;23;20197;-81
2022/08/30 00:23:44;;;;;;;11.00;7.07;;;15.60;99.90;;;;;;6219454;23;20225;-81
2022/08/30 00:26:11;;;;;;;8.68;7.80;;;15.50;99.90;;;;;;6220470;23;20615;-82
2022/08/30 00:28:40;;;;;;;9.90;7.82;;;15.60;99.90;;;;;;6194208;23;20197;-81
2022/08/30 00:31:07;;;;;;;9.65;7.72;;;15.60;99.90;;;;;;6221015;23;20254;-82
2022/08/30 00:33:36;;;;;;;12.95;7.32;;;15.40;99.90;;;;;;6221772;23;20207;-81
2022/08/30 00:36:03;;;;;;;8.52;7.07;;;15.40;99.90;;;;;;6221477;23;20177;-81
2022/08/30 00:38:30;;;;;;;9.45;8.07;;;15.40;99.90;;;;;;6221016;23;20325;-81
2022/08/30 00:40:58;;;;;;;9.63;7.27;;;15.40;99.90;;;;;;6194247;23;20201;-81
2022/08/30 00:43:29;;;;;;;10.07;7.50;;;15.40;99.90;;;;;;6218298;23;20398;-81
2022/08/30 00:45:58;;;;;;;7.80;7.00;;;15.40;99.90;;;;;;6220729;23;20475;-82
2022/08/30 00:48:25;;;;;;;12.38;8.90;;;15.40;99.90;;;;;;6220356;23;20449;-82
2022/08/30 00:50:59;;;;;;;14.73;9.00;;;15.40;99.90;;;;;;6222021;23;20453;-83
2022/08/30 00:53:30;;;;;;;11.68;7.80;;;15.40;99.90;;;;;;6220757;23;20452;-83
2022/08/30 00:55:59;;;;;;;11.65;8.63;;;15.40;99.90;;;;;;6219239;23;20232;-80
2022/08/30 00:58:36;;;;;;;12.18;8.50;;;15.20;99.90;;;;;;6218713;23;20235;-80
2022/08/30 01:01:06;;;;;;;11.95;9.25;;;15.20;99.90;;;;;;6219568;23;20534;-80
2022/08/30 01:03:34;;;;;;;9.68;8.20;;;15.20;99.90;;;;;;6220969;23;20172;-81
2022/08/30 01:06:03;;;;;;;10.95;7.70;;;15.20;99.90;;;;;;6221943;23;20475;-82
2022/08/30 01:08:30;;;;;;;10.23;8.43;;;15.10;99.90;;;;;;6220411;23;20201;-82
2022/08/30 01:10:58;;;;;;;10.85;7.93;;;15.20;99.90;;;;;;6220757;23;20191;-82
2022/08/30 01:13:26;;;;;;;10.60;8.18;;;15.20;99.90;;;;;;6220669;23;20226;-83
2022/08/30 01:15:54;;;;;;;18.67;10.07;;;15.20;99.90;;;;;;6221241;23;20259;-85
2022/08/30 01:18:22;;;;;;;14.15;10.63;;;15.10;99.90;;;;;;6224034;23;20187;-84
2022/08/30 01:21:23;;;;;;;15.05;12.20;;;15.10;99.90;;;;;;6223166;23;20321;-84
2022/08/30 01:23:54;;;;;;;19.08;14.25;;;14.70;99.90;;;;;;6222165;23;20256;-82
2022/08/30 01:26:22;;;;;;;20.45;14.60;;;14.50;99.90;;;;;;6221509;23;20203;-81
2022/08/30 01:28:54;;;;;;;22.65;17.40;;;14.40;99.90;;;;;;6194107;23;20232;-80
2022/08/30 01:31:21;;;;;;;19.02;15.60;;;14.40;99.90;;;;;;6221029;23;20165;-82
2022/08/30 01:33:48;;;;;;;25.92;17.23;;;14.50;99.90;;;;;;6220791;23;20534;-83
2022/08/30 01:36:16;;;;;;;25.83;17.48;;;14.60;99.90;;;;;;6221257;23;20238;-82
2022/08/30 01:38:52;;;;;;;23.20;16.15;;;14.70;99.90;;;;;;6220799;23;20427;-82
2022/08/30 01:41:26;;;;;;;25.52;16.77;;;14.80;99.90;;;;;;6222041;23;20238;-82
2022/08/30 01:43:55;;;;;;;19.58;16.27;;;14.80;99.90;;;;;;6221345;23;20217;-82
2022/08/30 01:46:27;;;;;;;23.38;16.92;;;14.90;99.90;;;;;;6220938;23;20187;-81
2022/08/30 01:48:56;;;;;;;19.63;16.20;;;14.90;99.90;;;;;;6220782;23;20255;-83
2022/08/30 01:51:25;;;;;;;20.58;15.77;;;14.80;99.90;;;;;;6221496;23;20526;-81
2022/08/30 01:53:53;;;;;;;19.98;17.92;;;14.90;99.90;;;;;;6220117;23;20233;-80
2022/08/30 01:56:21;;;;;;;18.65;16.85;;;14.90;99.90;;;;;;6221030;23;20248;-82
2022/08/30 01:58:48;;;;;;;18.10;15.32;;;14.80;99.90;;;;;;6219826;23;20182;-82
2022/08/30 02:01:18;;;;;;;18.00;15.93;;;14.70;99.90;;;;;;6221204;23;20264;-81
2022/08/30 02:03:47;;;;;;;24.90;16.63;;;14.80;99.90;;;;;;6194630;23;20248;-80
2022/08/30 02:06:18;;;;;;;16.67;13.57;;;14.60;99.90;;;;;;6194252;23;20219;-80
2022/08/30 02:08:45;;;;;;;15.25;13.48;;;14.30;99.90;;;;;;6194560;23;20249;-81
2022/08/30 02:11:14;;;;;;;23.80;14.77;;;14.40;99.90;;;;;;6194257;23;20249;-80
2022/08/30 02:13:42;;;;;;;14.30;12.23;;;14.60;99.90;;;;;;6219958;23;20181;-81
2022/08/30 02:16:14;;;;;;;26.70;11.02;;;14.70;99.90;;;;;;6220468;23;20218;-82
2022/08/30 02:18:42;;;;;;;14.38;12.55;;;14.70;99.90;;;;;;6219864;23;20175;-83
2022/08/30 02:21:11;;;;;;;23.40;14.13;;;14.80;99.90;;;;;;6219684;23;20543;-82
2022/08/30 02:23:38;;;;;;;14.88;11.52;;;15.10;99.90;;;;;;6219797;23;20243;-81
2022/08/30 02:26:06;;;;;;;17.42;12.05;;;15.30;99.90;;;;;;6220554;23;20208;-82
2022/08/30 02:28:33;;;;;;;19.88;10.52;;;15.50;99.90;;;;;;6220519;23;20255;-82
2022/08/30 02:31:09;;;;;;;11.75;9.90;;;15.60;99.90;;;;;;6220130;23;20197;-82
2022/08/30 02:33:37;;;;;;;9.98;8.60;;;15.80;99.90;;;;;;6220706;23;20189;-80
2022/08/30 02:36:07;;;;;;;12.07;8.90;;;15.90;99.90;;;;;;6194727;23;20185;-81
2022/08/30 02:38:36;;;;;;;16.60;9.55;;;15.90;99.90;;;;;;6219969;23;20215;-81
2022/08/30 02:41:02;;;;;;;10.40;8.23;;;16.10;99.90;;;;;;6194048;23;20228;-82
2022/08/30 02:43:31;;;;;;;12.47;9.90;;;16.20;99.90;;;;;;6219264;23;20476;-80
2022/08/30 02:45:58;;;;;;;8.80;7.90;;;16.30;99.90;;;;;;6219929;23;20423;-81
2022/08/30 02:48:25;;;;;;;8.70;7.80;;;16.50;99.90;;;;;;6219791;23;20647;-81
2022/08/30 02:50:52;;;;;;;10.43;8.90;;;16.50;99.90;;;;;;6219089;23;20420;-81
2022/08/30 02:53:21;;;;;;;12.13;8.93;;;16.60;99.90;;;;;;6220181;23;20396;-82
2022/08/30 02:55:53;;;;;;;13.90;9.43;;;16.50;99.90;;;;;;6220507;23;20611;-82
2022/08/30 02:58:20;;;;;;;11.57;8.40;;;16.50;99.90;;;;;;6220075;23;20398;-81
2022/08/30 03:00:48;;;;;;;13.90;8.70;;;16.30;99.90;;;;;;6219807;23;20490;-82
2022/08/30 03:03:18;;;;;;;11.93;9.97;;;16.10;99.90;;;;;;6220281;23;20429;-81
2022/08/30 03:05:45;;;;;;;11.70;9.88;;;16.20;99.90;;;;;;6219592;23;20405;-80
2022/08/30 03:08:12;;;;;;;16.17;8.90;;;16.10;99.90;;;;;;6194649;23;20186;-82
2022/08/30 03:10:40;;;;;;;10.33;8.27;;;16.10;99.90;;;;;;6220909;23;20398;-82
2022/08/30 03:13:07;;;;;;;11.70;8.10;;;15.90;99.90;;;;;;6222422;23;20396;-82
2022/08/30 03:15:38;;;;;;;10.17;8.57;;;16.20;99.90;;;;;;6197653;23;20403;-82
2022/08/30 03:18:05;;;;;;;9.43;7.53;;;16.20;99.90;;;;;;6224513;23;20456;-82
2022/08/30 03:20:34;;;;;;;11.30;7.60;;;16.10;99.90;;;;;;6220860;23;20498;-81
2022/08/30 03:23:01;;;;;;;8.37;7.60;;;16.20;99.90;;;;;;6221280;23;20501;-80
2022/08/30 03:25:28;;;;;;;8.10;7.30;;;16.20;99.90;;;;;;6193229;23;20415;-80
2022/08/30 03:27:55;;;;;;;8.10;7.20;;;16.30;99.90;;;;;;6192763;23;20427;-80
2022/08/30 03:30:22;;;;;;;13.77;8.07;;;16.40;99.90;;;;;;6218724;23;20414;-81
2022/08/30 03:32:50;;;;;;;8.87;7.97;;;16.50;99.90;;;;;;6218610;23;20563;-80
2022/08/30 03:35:18;;;;;;;12.27;7.87;;;16.60;99.90;;;;;;6219522;23;20536;-81
2022/08/30 03:37:48;;;;;;;9.77;8.77;;;16.50;99.90;;;;;;6193219;23;20708;-82
2022/08/30 03:40:22;;;;;;;9.20;7.80;;;16.50;99.90;;;;;;6218183;23;20421;-81
2022/08/30 03:42:51;;;;;;;10.13;8.70;;;16.20;99.90;;;;;;6219159;23;20458;-80
2022/08/30 03:45:18;;;;;;;11.30;8.83;;;16.30;99.90;;;;;;6218846;23;20468;-81
2022/08/30 03:47:46;;;;;;;8.60;7.70;;;16.30;99.90;;;;;;6219459;23;20400;-80
2022/08/30 03:50:14;;;;;;;9.70;7.63;;;16.30;99.90;;;;;;6218433;23;20770;-83
2022/08/30 03:52:41;;;;;;;11.70;9.33;;;16.20;99.90;;;;;;6219525;23;20923;-82
2022/08/30 03:55:09;;;;;;;15.60;10.37;;;16.20;99.90;;;;;;6218707;23;20424;-82
2022/08/30 03:57:36;;;;;;;8.00;7.20;;;16.20;99.90;;;;;;6218558;23;20401;-82
2022/08/30 04:00:09;;;;;;;10.00;7.90;;;16.10;99.90;;;;;;6218450;23;20385;-82
2022/08/30 04:02:36;;;;;;;12.57;9.10;;;16.20;99.90;;;;;;6217874;23;20435;-82
2022/08/30 04:05:04;;;;;;;8.80;7.90;;;16.10;99.90;;;;;;6218308;23;20614;-81
2022/08/30 04:07:32;;;;;;;7.90;7.07;;;16.10;99.90;;;;;;6217845;23;21014;-80
2022/08/30 04:09:59;;;;;;;10.03;7.93;;;16.10;99.90;;;;;;6216684;23;20402;-81
2022/08/30 04:12:26;;;;;;;9.17;8.30;;;16.00;99.90;;;;;;6218329;23;20427;-80
2022/08/30 04:14:54;;;;;;;9.30;8.40;;;16.00;99.90;;;;;;6218478;23;20472;-79
2022/08/30 04:17:21;;;;;;;10.63;9.53;;;15.90;99.90;;;;;;6218520;23;20478;-81
2022/08/30 04:19:48;;;;;;;10.60;9.43;;;15.90;99.90;;;;;;6218844;23;20659;-82
2022/08/30 04:22:16;;;;;;;11.00;9.00;;;16.00;99.90;;;;;;6193845;23;20655;-81
2022/08/30 04:24:43;;;;;;;14.57;8.50;;;16.00;99.90;;;;;;6220391;23;20750;-82
2022/08/30 04:27:10;;;;;;;12.70;9.23;;;16.10;99.90;;;;;;6219789;23;20492;-82
2022/08/30 04:29:38;;;;;;;10.60;8.97;;;16.10;99.90;;;;;;6220347;23;20393;-81
2022/08/30 04:32:05;;;;;;;11.03;9.93;;;16.20;99.90;;;;;;6221580;23;20396;-84
2022/08/30 04:34:32;;;;;;;11.77;9.77;;;16.30;99.90;;;;;;6221997;23;20392;-81
2022/08/30 04:36:59;;;;;;;11.13;9.10;;;16.40;99.90;;;;;;6222281;23;20479;-81
2022/08/30 04:39:26;;;;;;;13.27;9.70;;;16.50;99.90;;;;;;6224433;23;20425;-82
2022/08/30 04:41:56;;;;;;;19.43;10.77;;;16.70;99.90;;;;;;6224895;23;20440;-82
2022/08/30 04:44:26;;;;;;;15.07;11.30;;;16.80;99.90;;;;;;6221252;23;20516;-83
2022/08/30 04:46:54;;;;;;;14.07;10.97;;;16.80;99.90;;;;;;6196350;23;20484;-83
2022/08/30 04:49:21;;;;;;;12.03;10.00;;;17.00;99.90;;;;;;6223268;23;20483;-82
2022/08/30 04:51:49;;;;;;;12.43;9.80;;;17.20;99.90;;;;;;6224149;23;20477;-81
2022/08/30 04:54:15;;;;;;;28.90;10.80;;;17.10;99.90;;;;;;6221622;23;20402;-82
2022/08/30 04:56:44;;;;;;;11.73;9.77;;;17.10;99.90;;;;;;6195380;23;20408;-80
2022/08/30 04:59:12;;;;;;;12.10;9.77;;;17.20;99.90;;;;;;6222994;23;20731;-82
2022/08/30 05:01:40;;;;;;;17.50;10.97;;;17.20;99.90;;;;;;6224882;23;20435;-82
2022/08/30 05:04:12;;;;;;;14.60;10.17;;;17.40;99.90;;;;;;6224805;23;20456;-80
2022/08/30 05:06:39;;;;;;;11.83;9.03;;;17.60;99.90;;;;;;6221884;23;20407;-81
2022/08/30 05:09:07;;;;;;;12.70;8.93;;;17.50;99.90;;;;;;6220958;23;20440;-83
2022/08/30 05:11:34;;;;;;;16.57;11.60;;;17.60;99.90;;;;;;6219709;23;20626;-82
2022/08/30 05:14:01;;;;;;;11.43;9.23;;;17.70;99.90;;;;;;6218993;23;20403;-82
2022/08/30 05:16:28;;;;;;;11.07;8.57;;;17.60;99.90;;;;;;6219828;23;20397;-82
2022/08/30 05:18:57;;;;;;;18.80;13.37;;;17.70;99.90;;;;;;6219971;23;20447;-80
2022/08/30 05:21:26;;;;;;;13.60;10.07;;;18.00;99.90;;;;;;6220268;23;20503;-83
2022/08/30 05:23:58;;;;;;;16.63;9.83;;;18.00;99.90;;;;;;6220380;23;20453;-84
2022/08/30 05:26:30;;;;;;;19.47;11.20;;;18.00;99.90;;;;;;6219199;23;20404;-81
2022/08/30 05:28:58;;;;;;;9.70;8.57;;;17.90;99.90;;;;;;6194169;23;20418;-84
2022/08/30 05:31:28;;;;;;;20.83;12.20;;;18.00;99.90;;;;;;6220209;23;20475;-83
2022/08/30 05:33:56;;;;;;;18.43;9.77;;;18.00;99.90;;;;;;6218959;23;20380;-85
2022/08/30 05:36:26;;;;;;;19.73;11.47;;;18.00;99.90;;;;;;6220405;23;20440;-82
2022/08/30 05:38:56;;;;;;;13.77;8.60;;;18.00;99.90;;;;;;6219496;23;20387;-80
2022/08/30 05:41:24;;;;;;;11.80;8.50;;;18.20;99.90;;;;;;6218274;23;20446;-81
2022/08/30 05:43:57;;;;;;;16.47;10.13;;;18.40;99.90;;;;;;6217884;23;20902;-80
2022/08/30 05:46:28;;;;;;;12.60;9.43;;;18.30;99.90;;;;;;6219190;23;20402;-85
2022/08/30 05:48:55;;;;;;;19.13;10.23;;;18.40;99.90;;;;;;6218934;23;20679;-85
2022/08/30 05:51:28;;;;;;;13.47;9.13;;;18.70;99.90;;;;;;6224131;23;20549;-84
2022/08/30 05:53:58;;;;;;;12.10;10.20;;;18.60;99.90;;;;;;6222353;23;20667;-86
2022/08/30 05:56:34;;;;;;;11.27;10.10;;;18.70;99.90;;;;;;6219367;23;20631;-83
2022/08/30 05:59:05;;;;;;;10.60;8.83;;;19.00;99.90;;;;;;6220191;23;20356;-87
2022/08/30 06:01:36;;;;;;;9.13;8.23;;;19.00;99.90;;;;;;6192369;23;20439;-80
2022/08/30 06:04:06;;;;;;;18.63;8.60;;;19.20;99.90;;;;;;6218329;23;20399;-80
2022/08/30 06:06:35;;;;;;;12.30;7.60;;;19.20;99.90;;;;;;6219217;23;20373;-82
2022/08/30 06:09:04;;;;;;;13.53;8.57;;;19.20;99.90;;;;;;6194233;23;20462;-83
2022/08/30 06:11:32;;;;;;;9.17;8.17;;;19.20;99.90;;;;;;6193632;23;20406;-83
2022/08/30 06:14:01;;;;;;;10.97;6.83;;;19.30;99.90;;;;;;6193817;23;20754;-82
2022/08/30 06:16:29;;;;;;;9.03;8.20;;;19.50;99.90;;;;;;6219367;23;20480;-81
2022/08/30 06:18:58;;;;;;;13.77;10.40;;;19.70;99.90;;;;;;6194753;23;20428;-85
2022/08/30 06:21:31;;;;;;;9.93;8.60;;;19.70;99.90;;;;;;6221495;23;20895;-81
2022/08/30 06:23:59;;;;;;;12.43;8.70;;;19.60;99.90;;;;;;6219814;23;20397;-83
2022/08/30 06:26:27;;;;;;;12.90;7.83;;;19.80;99.90;;;;;;6195284;23;20452;-84
2022/08/30 06:28:55;;;;;;;12.40;7.93;;;20.10;99.90;;;;;;6220239;23;20740;-83
2022/08/30 06:31:23;;;;;;;13.63;9.93;;;20.30;99.90;;;;;;6194580;23;20384;-86
2022/08/30 06:33:51;;;;;;;9.83;8.80;;;20.60;99.90;;;;;;6219907;23;20401;-84
2022/08/30 06:36:22;;;;;;;14.50;8.07;;;20.60;99.90;;;;;;6220840;23;20438;-84
2022/08/30 06:38:51;;;;;;;8.37;7.57;;;20.60;99.90;;;;;;6221075;23;20370;-83
2022/08/30 06:41:22;;;;;;;11.37;8.87;;;20.60;99.90;;;;;;6220902;23;20445;-84
2022/08/30 06:43:50;;;;;;;12.80;9.00;;;20.90;99.90;;;;;;6194692;23;20420;-83
2022/08/30 06:46:20;;;;;;;12.50;8.10;;;20.80;99.90;;;;;;6219897;23;20426;-82
2022/08/30 06:48:49;;;;;;;17.03;8.70;;;20.80;99.90;;;;;;6219916;23;20513;-83
2022/08/30 06:51:21;;;;;;;10.10;7.40;;;20.70;99.90;;;;;;6194150;23;20723;-86
2022/08/30 06:53:49;;;;;;;10.73;8.20;;;20.90;99.90;;;;;;6222169;23;20406;-83
2022/08/30 06:56:17;;;;;;;9.53;8.17;;;21.30;99.90;;;;;;6222315;23;20484;-83
2022/08/30 06:58:46;;;;;;;15.10;8.03;;;21.70;99.90;;;;;;6220914;23;20858;-84
2022/08/30 07:01:16;;;;;;;9.73;8.73;;;21.90;99.90;;;;;;6218635;23;20848;-85
2022/08/30 07:03:43;;;;;;;9.30;7.83;;;22.00;99.90;;;;;;6194648;23;20472;-83
2022/08/30 07:06:13;;;;;;;12.80;7.60;;;21.90;99.90;;;;;;6220860;23;20361;-83
2022/08/30 07:08:41;;;;;;;7.40;6.57;;;21.90;99.90;;;;;;6220002;23;20443;-83
2022/08/30 07:11:09;;;;;;;10.00;6.87;;;22.20;99.90;;;;;;6219157;23;20507;-85
2022/08/30 07:13:38;;;;;;;8.27;7.40;;;22.40;99.90;;;;;;6218600;23;20382;-84
2022/08/30 07:16:13;;;;;;;7.53;6.83;;;22.70;99.90;;;;;;6221378;23;20379;-82
2022/08/30 07:18:50;;;;;;;9.67;6.80;;;22.90;99.90;;;;;;6224392;23;20478;-87
2022/08/30 07:21:23;;;;;;;9.30;6.70;;;23.20;99.90;;;;;;6220096;23;20433;-85
2022/08/30 07:23:54;;;;;;;9.33;7.93;;;23.60;99.90;;;;;;6219731;23;20388;-86
2022/08/30 07:26:31;;;;;;;8.50;6.30;;;24.70;99.90;;;;;;6221427;23;20374;-87
2022/08/30 07:29:06;;;;;;;7.07;6.37;;;26.80;99.90;;;;;;6220606;23;20409;-87
2022/08/30 07:31:43;;;;;;;6.03;5.43;;;29.30;99.90;;;;;;6221340;23;20406;-87
2022/08/30 07:34:11;;;;;;;6.67;5.90;;;32.00;99.90;;;;;;6174007;23;20420;-88
2022/08/30 07:36:38;;;;;;;8.17;7.37;;;33.20;99.60;;;;;;6223808;23;20404;-87
2022/08/30 07:39:06;;;;;;;9.00;7.87;;;33.90;96.50;;;;;;6222146;23;20793;-85
2022/08/30 07:41:37;;;;;;;16.90;8.23;;;34.00;94.40;;;;;;6218944;23;20704;-87
2022/08/30 07:44:06;;;;;;;7.40;6.70;;;32.40;96.70;;;;;;6220962;23;20446;-88
2022/08/30 07:46:34;;;;;;;8.10;7.30;;;32.00;98.50;;;;;;6218057;23;20441;-85
2022/08/30 07:49:01;;;;;;;8.13;7.40;;;29.80;99.90;;;;;;6216890;23;20404;-81
2022/08/30 07:51:32;;;;;;;8.00;7.27;;;27.30;99.90;;;;;;6217611;23;20463;-85
2022/08/30 07:53:59;;;;;;;8.30;7.00;;;25.20;99.90;;;;;;6220938;23;20621;-87
2022/08/30 07:56:29;;;;;;;8.40;7.70;;;24.50;99.90;;;;;;6219266;23;20425;-87
2022/08/30 07:58:58;;;;;;;8.10;7.27;;;24.40;99.90;;;;;;6171347;23;20493;-86
2022/08/30 08:01:28;;;;;;;12.90;6.53;;;24.60;99.90;;;;;;6223878;23;20443;-88
2022/08/30 08:03:55;;;;;;;8.60;6.80;;;24.80;99.90;;;;;;6197900;23;20393;-87
2022/08/30 08:06:37;;;;;;;8.60;7.57;;;24.70;99.90;;;;;;6196713;23;20392;-88
2022/08/30 08:09:09;;;;;;;7.73;6.37;;;24.70;99.90;;;;;;6195406;23;20375;-88
2022/08/30 08:11:40;;;;;;;8.80;6.33;;;25.20;99.90;;;;;;6219249;23;20377;-87
2022/08/30 08:14:10;;;;;;;7.30;6.60;;;28.30;99.90;;;;;;6221210;23;20863;-86
2022/08/30 08:16:37;;;;;;;9.37;5.97;;;31.00;99.90;;;;;;6238310;23;20379;-86
2022/08/30 08:19:07;;;;;;;7.77;6.97;;;32.70;99.90;;;;;;6211023;23;20484;-89
2022/08/30 08:21:38;;;;;;;5.43;5.00;;;31.40;99.90;;;;;;6224121;23;20840;-89
2022/08/30 08:24:07;;;;;;;5.30;4.80;;;30.40;99.90;;;;;;6196199;23;20413;-87
2022/08/30 08:26:44;;;;;;;5.47;5.00;;;30.60;99.90;;;;;;6219747;23;20409;-88
2022/08/30 08:29:19;;;;;;;6.27;5.53;;;29.50;99.90;;;;;;6219095;23;20488;-88
2022/08/30 08:31:56;;;;;;;6.07;5.57;;;28.10;99.90;;;;;;6195040;23;20380;-88
2022/08/30 08:34:26;;;;;;;8.07;5.53;;;29.50;99.90;;;;;;6220856;23;20363;-87
2022/08/30 08:36:55;;;;;;;6.20;5.03;;;32.50;99.90;;;;;;6219116;23;20398;-86
2022/08/30 08:39:22;;;;;;;5.80;3.77;;;34.80;98.80;;;;;;6219893;23;20616;-88
2022/08/30 08:42:18;;;;;;;3.23;3.03;;;36.20;94.00;;;;;;6219045;23;20693;-89
2022/08/30 08:45:04;;;;;;;4.10;3.80;;;34.70;94.00;;;;;;6191543;23;20430;-85
2022/08/30 08:48:06;;;;;;;3.87;3.57;;;32.40;97.50;;;;;;6220292;23;20420;-88
2022/08/30 08:53:33;;;;;;;5.07;3.30;;;30.80;99.90;;;;;;6220819;23;20437;-88
2022/08/30 08:53:36;;;;;;;2.73;2.53;;;29.70;99.90;;;;;;6223780;23;20520;-86
2022/08/30 08:56:16;;;;;;;3.73;3.17;;;28.40;99.90;;;;;;6220946;23;20409;-87
2022/08/30 08:58:53;;;;;;;5.40;3.60;;;28.20;99.90;;;;;;6219731;23;20402;-86
2022/08/30 09:01:26;;;;;;;5.70;4.80;;;29.20;99.90;;;;;;6193759;23;20374;-86
2022/08/30 09:04:04;;;;;;;3.80;3.50;;;27.70;99.90;;;;;;6220776;23;20417;-87
2022/08/30 09:06:58;;;;;;;4.27;3.77;;;26.60;99.90;;;;;;6196075;23;20373;-88
2022/08/30 09:09:30;;;;;;;4.20;3.80;;;26.00;99.90;;;;;;6225706;23;20544;-87
2022/08/30 09:11:58;;;;;;;3.47;3.20;;;25.70;99.90;;;;;;6239423;23;20430;-86
2022/08/30 09:14:31;;;;;;;4.10;3.77;;;27.20;99.90;;;;;;6237450;23;20405;-86
2022/08/30 09:17:08;;;;;;;3.77;3.47;;;28.90;99.90;;;;;;6232749;23;20408;-84
2022/08/30 09:19:42;;;;;;;4.93;3.80;;;30.80;99.90;;;;;;6231486;23;20368;-81
2022/08/30 09:22:26;;;;;;;3.93;3.63;;;29.90;99.90;;;;;;6233792;23;20402;-85
2022/08/30 09:25:11;;;;;;;3.73;3.43;;;29.00;99.90;;;;;;6239520;23;20434;-86
2022/08/30 09:27:45;;;;;;;4.30;3.90;;;27.80;99.90;;;;;;6226205;23;20387;-87
2022/08/30 09:30:18;;;;;;;4.00;3.57;;;26.80;99.90;;;;;;6222769;23;20575;-86
2022/08/30 09:33:16;;;;;;;3.93;3.63;;;26.50;99.90;;;;;;6195820;23;20482;-86
2022/08/30 09:35:47;;;;;;;3.70;3.40;;;26.40;99.90;;;;;;6220279;23;20418;-87
2022/08/30 09:38:28;;;;;;;5.23;4.47;;;26.50;99.90;;;;;;6221584;23;20388;-82
2022/08/30 09:40:59;;;;;;;4.97;4.33;;;26.50;99.90;;;;;;6195346;23;20552;-84
2022/08/30 09:43:27;;;;;;;4.07;3.70;;;25.50;99.90;;;;;;6219533;23;20480;-85
2022/08/30 09:46:02;;;;;;;4.00;3.70;;;24.40;99.90;;;;;;6220071;23;20720;-86
2022/08/30 09:48:42;;;;;;;3.30;2.90;;;23.50;99.90;;;;;;6219343;23;20356;-83
2022/08/30 09:51:15;;;;;;;6.00;3.87;;;23.00;99.90;;;;;;6192211;23;20382;-84
2022/08/30 09:54:09;;;;;;;8.17;3.93;;;22.50;99.90;;;;;;6219986;23;20414;-86
2022/08/30 09:57:38;;;;;;;3.23;2.93;;;22.20;99.90;;;;;;6220073;23;20428;-86
2022/08/30 10:00:17;;;;;;;2.47;2.27;;;22.60;99.90;;;;;;6175617;23;20498;-85
2022/08/30 10:02:56;;;;;;;2.53;2.33;;;23.10;99.90;;;;;;6221482;23;20493;-87
2022/08/30 10:05:44;;;;;;;2.60;2.40;;;23.80;99.90;;;;;;6223913;23;20353;-88
2022/08/30 10:08:25;;;;;;;3.30;2.37;;;25.00;99.90;;;;;;6222344;23;20385;-86
2022/08/30 10:10:58;;;;;;;5.57;2.70;;;25.60;99.90;;;;;;6222359;23;20413;-86
2022/08/30 10:13:43;;;;;;;3.10;2.50;;;25.90;99.90;;;;;;6195363;23;20402;-85
2022/08/30 10:16:48;;;;;;;2.57;2.10;;;25.70;99.90;;;;;;6222532;23;20409;-85
2022/08/30 10:19:54;;;;;;;2.90;2.67;;;25.50;99.90;;;;;;6221281;23;20364;-86
2022/08/30 10:22:29;;;;;;;2.27;2.03;;;25.30;99.90;;;;;;6206277;23;21015;-85
2022/08/30 10:25:12;;;;;;;2.60;2.20;;;25.30;99.90;;;;;;6224443;23;20415;-87
2022/08/30 10:28:03;;;;;;;2.60;2.40;;;25.40;99.90;;;;;;6223534;23;20384;-87
2022/08/30 10:30:35;;;;;;;4.17;2.60;;;25.80;99.90;;;;;;6231742;23;20364;-87
2022/08/30 10:33:15;;;;;;;2.83;2.60;;;25.80;99.90;;;;;;6239046;23;20393;-88
2022/08/30 10:35:51;;;;;;;2.97;2.77;;;25.70;99.90;;;;;;6223617;23;20579;-87
2022/08/30 10:38:30;;;;;;;3.33;3.03;;;25.10;99.90;;;;;;6221620;23;20400;-85
2022/08/30 10:41:12;;;;;;;4.30;2.70;;;24.60;99.90;;;;;;6221600;23;20360;-85
2022/08/30 10:43:42;;;;;;;3.50;3.20;;;24.20;99.90;;;;;;6222215;23;20673;-87
2022/08/30 10:46:48;;;;;;;3.53;2.90;;;24.00;99.90;;;;;;6221282;23;20605;-87
2022/08/30 10:49:20;;;;;;;5.20;3.03;;;24.00;99.90;;;;;;6178208;23;20595;-87
2022/08/30 10:52:09;;;;;;;2.70;2.50;;;23.40;99.90;;;;;;6220879;23;20381;-87
2022/08/30 10:54:49;;;;;;;4.00;3.17;;;23.20;99.90;;;;;;6220715;23;20456;-84
2022/08/30 10:57:26;;;;;;;3.13;2.83;;;23.60;99.90;;;;;;6199371;23;20384;-88
2022/08/30 11:00:24;;;;;;;4.10;2.87;;;23.70;99.90;;;;;;6198525;23;20382;-87
2022/08/30 11:03:26;;;;;;;2.90;2.57;;;24.10;99.90;;;;;;6188741;23;20414;-87
2022/08/30 11:06:26;;;;;;;9.13;2.70;;;24.40;99.90;;;;;;6221895;23;20375;-87
2022/08/30 11:09:14;;;;;;;3.10;2.87;;;24.60;99.90;;;;;;6214295;23;20352;-87
2022/08/30 11:12:12;;;;;;;2.93;2.40;;;24.60;99.90;;;;;;6213924;23;20384;-87
2022/08/30 11:14:42;;;;;;;3.83;2.90;;;24.60;99.90;;;;;;6231629;23;20387;-88
2022/08/30 11:17:26;;;;;;;2.60;2.40;;;24.50;99.90;;;;;;6222132;23;20401;-87
2022/08/30 11:19:56;;;;;;;5.80;5.30;;;24.40;99.90;;;;;;6221699;23;20580;-89
2022/08/30 11:22:32;;;;;;;2.63;2.43;;;24.40;99.90;;;;;;6221925;23;20400;-84
2022/08/30 11:25:42;;;;;;;2.63;2.30;;;24.60;99.90;;;;;;6228540;23;20404;-88
2022/08/30 11:28:37;;;;;;;2.67;2.47;;;24.40;99.90;;;;;;6220566;23;20519;-81
2022/08/30 11:31:27;;;;;;;2.50;2.30;;;24.00;99.90;;;;;;6220120;23;20536;-86
2022/08/30 11:33:58;;;;;;;2.93;2.23;;;23.50;99.90;;;;;;6220968;23;20531;-88
2022/08/30 11:36:39;;;;;;;2.77;2.27;;;23.10;99.90;;;;;;6221689;23;20559;-89
2022/08/30 11:39:43;;;;;;;3.30;2.70;;;23.50;99.90;;;;;;6197837;23;20384;-87
2022/08/30 11:42:28;;;;;;;2.40;2.20;;;23.70;99.90;;;;;;6219484;23;20488;-84
2022/08/30 11:45:23;;;;;;;2.40;2.20;;;23.80;99.90;;;;;;6219830;23;20401;-86
2022/08/30 11:47:56;;;;;;;3.10;2.60;;;23.60;99.90;;;;;;6195774;23;20352;-87
2022/08/30 11:50:39;;;;;;;3.10;2.50;;;23.80;99.90;;;;;;6221616;23;20368;-86
2022/08/30 11:53:49;;;;;;;2.73;2.33;;;24.10;99.90;;;;;;6219382;23;20372;-86
2022/08/30 11:57:06;;;;;;;2.60;2.40;;;23.90;99.90;;;;;;6203086;23;20499;-86
2022/08/30 11:59:53;;;;;;;6.87;2.50;;;23.50;99.90;;;;;;6090392;23;20419;-87
2022/08/30 12:02:54;;;;;;;2.47;2.20;;;23.40;99.90;;;;;;6195229;23;20534;-88
2022/08/30 12:05:39;;;;;;;3.13;2.83;;;23.30;99.90;;;;;;6221177;23;20370;-88
2022/08/30 12:08:19;;;;;;;4.07;2.97;;;23.30;99.90;;;;;;6193778;23;20378;-86
2022/08/30 12:10:59;;;;;;;2.80;2.43;;;23.20;99.90;;;;;;6220085;23;20381;-86
2022/08/30 12:13:54;;;;;;;2.63;2.00;;;23.20;99.90;;;;;;6220609;23;20385;-85
2022/08/30 12:18:26;;;;;;;1.83;1.73;;;23.30;99.90;;;;;;6219074;23;20421;-84
2022/08/30 12:19:30;;;;;;;3.80;2.40;;;23.90;99.90;;;;;;6219375;23;20390;-84
2022/08/30 12:22:00;;;;;;;2.70;2.50;;;23.80;99.90;;;;;;6221073;23;20422;-86
2022/08/30 12:24:35;;;;;;;2.77;2.50;;;24.00;99.90;;;;;;6220228;23;20376;-86
2022/08/30 12:27:20;;;;;;;2.40;2.20;;;23.50;99.90;;;;;;6220106;23;20386;-87
2022/08/30 12:29:58;;;;;;;2.60;2.40;;;23.70;99.90;;;;;;6221460;23;21094;-87
2022/08/30 12:32:26;;;;;;;2.00;1.60;;;24.20;99.90;;;;;;6220704;23;20471;-89
2022/08/30 12:34:55;;;;;;;1.53;1.40;;;24.50;99.90;;;;;;6221669;23;20849;-85
2022/08/30 12:37:32;;;;;;;1.70;1.60;;;24.50;99.90;;;;;;6222787;23;20356;-88
2022/08/30 12:40:17;;;;;;;1.60;1.50;;;23.90;99.90;;;;;;6221073;23;20372;-86
2022/08/30 12:42:57;;;;;;;2.03;1.83;;;23.30;99.90;;;;;;6220795;23;20491;-85
2022/08/30 12:45:30;;;;;;;2.07;1.97;;;23.20;99.90;;;;;;6221687;23;20486;-85
2022/08/30 12:48:02;;;;;;;3.33;2.27;;;23.10;99.90;;;;;;6226791;23;20368;-84
2022/08/30 12:50:42;;;;;;;1.90;1.70;;;23.10;99.90;;;;;;6227814;23;20354;-85
2022/08/30 12:53:13;;;;;;;2.13;1.87;;;23.20;99.90;;;;;;6229603;23;20386;-85
2022/08/30 12:56:02;;;;;;;2.33;1.70;;;23.40;99.90;;;;;;6228591;23;20521;-85
2022/08/30 12:58:52;;;;;;;1.83;1.73;;;23.50;99.90;;;;;;6196128;23;20729;-85
2022/08/30 13:01:29;;;;;;;1.83;1.73;;;23.40;99.90;;;;;;6223289;23;20496;-89
2022/08/30 13:04:19;;;;;;;2.23;2.07;;;23.30;99.90;;;;;;6224815;23;20395;-87
2022/08/30 13:06:57;;;;;;;2.20;2.00;;;23.50;99.90;;;;;;6222370;23;20403;-88
2022/08/30 13:09:42;;;;;;;3.70;2.33;;;23.80;99.90;;;;;;6226428;23;20344;-84
2022/08/30 13:12:22;;;;;;;6.30;2.50;;;24.00;99.90;;;;;;6223526;23;20394;-87
2022/08/30 13:14:49;;;;;;;2.23;2.00;;;24.00;99.90;;;;;;6223430;23;20467;-86